createdAt,value
2018-12-10T00:02:29.565Z,96.85
2018-12-10T00:05:14.753Z,96.74
2018-12-10T00:10:45.524Z,97.22
2018-12-10T00:13:26.034Z,97.44
2018-12-10T00:16:07.723Z,97.60
2018-12-10T00:18:45.544Z,97.34
2018-12-10T00:21:27.412Z,97.44
2018-12-10T00:24:07.752Z,96.92
2018-12-10T00:26:43.059Z,97.06
2018-12-10T00:29:21.065Z,97.03
2018-12-10T00:31:59.351Z,96.93
2018-12-10T00:34:36.548Z,97.04
2018-12-10T00:37:12.618Z,96.73
2018-12-10T00:39:49.352Z,96.85
2018-12-10T00:42:23.381Z,96.98
2018-12-10T00:45:04.058Z,96.69
2018-12-10T00:47:39.483Z,97.20
2018-12-10T00:50:24.955Z,97.41
2018-12-10T00:52:59.572Z,97.39
2018-12-10T00:55:36.550Z,97.61
2018-12-10T00:58:12.917Z,97.83
2018-12-10T01:00:48.319Z,97.83
2018-12-10T01:03:25.394Z,98.07
2018-12-10T01:06:04.272Z,97.96
2018-12-10T01:08:40.429Z,98.56
2018-12-10T01:11:19.870Z,98.38
2018-12-10T01:13:56.411Z,98.48
2018-12-10T01:16:30.691Z,99.12
2018-12-10T01:19:07.214Z,99.45
2018-12-10T01:21:44.628Z,99.59
2018-12-10T01:24:23.013Z,99.91
2018-12-10T01:26:57.978Z,99.70
2018-12-10T01:29:34.260Z,99.85
2018-12-10T01:32:08.456Z,99.61
2018-12-10T01:34:47.085Z,99.68
2018-12-10T01:37:20.829Z,99.58
2018-12-10T01:39:59.063Z,100.00
2018-12-10T01:42:36.657Z,100.00
2018-12-10T01:45:10.868Z,100.00
2018-12-10T01:47:53.756Z,100.00
2018-12-10T01:50:31.673Z,100.00
2018-12-10T01:53:08.578Z,100.00
2018-12-10T01:55:45.750Z,100.00
2018-12-10T01:58:21.041Z,98.98
2018-12-10T02:00:56.551Z,98.08
2018-12-10T02:03:33.810Z,98.17
2018-12-10T02:06:17.177Z,97.65
2018-12-10T02:09:01.212Z,97.99
2018-12-10T02:11:43.233Z,98.23
2018-12-10T02:14:19.645Z,98.64
2018-12-10T02:16:55.519Z,98.37
2018-12-10T02:19:32.642Z,98.30
2018-12-10T02:22:13.096Z,98.59
2018-12-10T02:24:53.725Z,99.14
2018-12-10T02:27:30.781Z,100.00
2018-12-10T02:30:08.836Z,100.00
2018-12-10T02:32:43.412Z,100.00
2018-12-10T02:35:18.259Z,100.00
2018-12-10T02:37:54.973Z,100.00
2018-12-10T02:40:29.525Z,100.00
2018-12-10T02:43:14.441Z,100.00
2018-12-10T02:45:53.221Z,100.00
2018-12-10T02:48:28.688Z,100.00
2018-12-10T02:51:08.115Z,100.00
2018-12-10T02:53:47.097Z,100.00
2018-12-10T02:56:23.316Z,100.00
2018-12-10T02:58:59.851Z,100.00
2018-12-10T03:01:43.914Z,99.78
2018-12-10T03:04:18.151Z,99.79
2018-12-10T03:07:00.152Z,99.56
2018-12-10T03:09:36.063Z,99.20
2018-12-10T03:19:56.431Z,98.05
2018-12-10T03:22:39.929Z,98.12
2018-12-10T03:25:19.261Z,97.51
2018-12-10T03:27:55.267Z,96.89
2018-12-10T03:30:33.987Z,96.59
2018-12-10T03:33:10.808Z,96.13
2018-12-10T03:35:49.907Z,95.45
2018-12-10T03:38:27.316Z,95.38
2018-12-10T03:41:07.357Z,95.02
2018-12-10T03:43:41.126Z,94.74
2018-12-10T03:46:20.172Z,94.82
2018-12-10T03:48:50.670Z,94.27
2018-12-10T03:51:21.738Z,94.16
2018-12-10T03:53:53.604Z,93.58
2018-12-10T03:56:25.570Z,92.96
2018-12-10T03:58:57.215Z,92.98
2018-12-10T04:01:28.500Z,92.55
2018-12-10T04:03:59.739Z,92.40
2018-12-10T04:06:34.604Z,92.75
2018-12-10T04:09:15.361Z,92.46
2018-12-10T04:11:58.713Z,92.93
2018-12-10T04:14:33.775Z,92.38
2018-12-10T04:17:13.100Z,92.41
2018-12-10T04:19:49.479Z,92.76
2018-12-10T04:22:25.842Z,91.72
2018-12-10T04:25:02.352Z,91.89
2018-12-10T04:27:47.682Z,91.64
2018-12-10T04:30:26.501Z,92.15
2018-12-10T04:33:02.643Z,92.16
2018-12-10T04:35:40.116Z,92.24
2018-12-10T04:38:16.913Z,92.71
2018-12-10T04:40:53.712Z,91.91
2018-12-10T04:43:28.803Z,92.22
2018-12-10T04:46:04.136Z,91.62
2018-12-10T04:48:38.709Z,91.42
2018-12-10T04:51:14.268Z,91.66
2018-12-10T04:53:48.722Z,91.36
2018-12-10T04:56:27.135Z,91.89
2018-12-10T04:59:03.975Z,91.67
2018-12-10T05:01:38.791Z,92.05
2018-12-10T05:04:17.494Z,91.88
2018-12-10T05:06:54.613Z,92.05
2018-12-10T05:09:29.136Z,92.37
2018-12-10T05:12:05.774Z,92.07
2018-12-10T05:14:47.075Z,92.76
2018-12-10T05:17:21.401Z,93.21
2018-12-10T05:20:02.205Z,94.08
2018-12-10T05:22:42.072Z,93.78
2018-12-10T05:27:52.106Z,93.43
2018-12-10T05:30:25.891Z,93.54
2018-12-10T05:33:02.422Z,93.11
2018-12-10T05:35:39.839Z,92.53
2018-12-10T05:38:14.978Z,92.78
2018-12-10T05:40:52.933Z,93.04
2018-12-10T05:43:30.012Z,93.32
2018-12-10T05:46:04.488Z,92.54
2018-12-10T05:48:43.593Z,92.63
2018-12-10T05:51:18.047Z,92.80
2018-12-10T05:53:52.562Z,91.85
2018-12-10T05:56:33.150Z,92.06
2018-12-10T05:59:12.870Z,92.31
2018-12-10T06:01:46.057Z,92.66
2018-12-10T06:04:29.532Z,92.18
2018-12-10T06:07:03.410Z,92.33
2018-12-10T06:09:38.852Z,92.34
2018-12-10T06:12:15.526Z,92.42
2018-12-10T06:14:56.377Z,92.40
2018-12-10T06:17:32.620Z,92.45
2018-12-10T06:20:09.340Z,94.39
2018-12-10T06:22:46.398Z,94.66
2018-12-10T06:25:18.285Z,95.85
2018-12-10T06:27:53.577Z,95.27
2018-12-10T06:30:47.576Z,95.32
2018-12-10T06:33:36.951Z,94.58
2018-12-10T06:36:11.808Z,95.24
2018-12-10T06:38:43.582Z,94.94
2018-12-10T06:41:21.108Z,94.66
2018-12-10T06:44:04.677Z,93.96
2018-12-10T06:46:46.537Z,93.91
2018-12-10T06:49:23.337Z,93.29
2018-12-10T06:51:57.595Z,93.07
2018-12-10T06:54:31.796Z,92.79
2018-12-10T06:57:08.536Z,93.33
2018-12-10T06:59:45.081Z,92.67
2018-12-10T07:02:19.694Z,92.79
2018-12-10T07:05:03.305Z,92.99
2018-12-10T07:07:40.378Z,93.16
2018-12-10T07:10:17.365Z,93.10
2018-12-10T07:13:17.096Z,93.31
2018-12-10T07:15:51.942Z,94.25
2018-12-10T07:18:35.611Z,94.30
2018-12-10T07:21:08.234Z,94.69
2018-12-10T07:23:49.031Z,95.67
2018-12-10T07:26:25.167Z,96.72
2018-12-10T07:29:08.422Z,97.09
2018-12-10T07:31:43.281Z,97.33
2018-12-10T07:34:20.534Z,97.49
2018-12-10T07:36:57.487Z,97.97
2018-12-10T07:39:37.569Z,97.34
2018-12-10T07:42:18.157Z,96.93
2018-12-10T07:44:58.255Z,96.32
2018-12-10T07:47:34.962Z,96.58
2018-12-10T07:50:16.322Z,96.51
2018-12-10T07:52:50.535Z,96.34
2018-12-10T07:55:28.945Z,96.96
2018-12-10T07:58:11.659Z,96.50
2018-12-10T08:00:55.175Z,96.59
2018-12-10T08:03:44.917Z,97.48
2018-12-10T08:06:43.162Z,97.55
2018-12-10T08:09:20.384Z,97.54
2018-12-10T08:11:56.994Z,98.17
2018-12-10T08:14:34.695Z,98.46
2018-12-10T08:17:11.625Z,98.58
2018-12-10T08:19:49.118Z,97.71
2018-12-10T08:22:22.911Z,98.02
2018-12-10T08:24:57.544Z,97.78
2018-12-10T08:27:31.091Z,98.04
2018-12-10T08:30:07.385Z,98.52
2018-12-10T08:32:54.961Z,98.84
2018-12-10T08:35:29.843Z,99.64
2018-12-10T08:38:12.942Z,99.68
2018-12-10T08:40:47.873Z,100.00
2018-12-10T08:46:23.746Z,99.87
2018-12-10T08:49:13.998Z,100.00
2018-12-10T08:51:56.447Z,100.00
2018-12-10T08:54:34.096Z,100.00
2018-12-10T08:57:18.920Z,100.00
2018-12-10T08:59:56.556Z,100.00
2018-12-10T09:02:30.873Z,100.00
2018-12-10T09:05:19.285Z,100.00
2018-12-10T09:08:01.888Z,100.00
2018-12-10T09:10:40.483Z,100.00
2018-12-10T09:13:20.160Z,100.00
2018-12-10T09:15:59.335Z,100.00
2018-12-10T09:18:36.625Z,100.00
2018-12-10T09:21:13.862Z,100.00
2018-12-10T09:23:52.125Z,100.00
2018-12-10T09:26:29.084Z,100.00
2018-12-10T09:29:14.180Z,100.00
2018-12-10T09:32:04.493Z,100.00
2018-12-10T09:34:42.187Z,100.00
2018-12-10T09:37:22.034Z,100.00
2018-12-10T09:40:11.389Z,100.00
2018-12-10T09:42:48.703Z,100.00
2018-12-10T09:48:32.602Z,100.00
2018-12-10T09:51:15.735Z,100.00
2018-12-10T09:53:50.776Z,100.00
2018-12-10T09:56:24.472Z,100.00
2018-12-10T09:59:01.278Z,100.00
2018-12-10T10:01:43.796Z,98.84
2018-12-10T10:04:40.650Z,98.56
2018-12-10T10:07:17.845Z,97.83
2018-12-10T10:09:55.318Z,96.97
2018-12-10T10:12:38.935Z,96.79
2018-12-10T10:15:17.204Z,95.95
2018-12-10T10:17:55.025Z,95.28
2018-12-10T10:20:39.331Z,94.93
2018-12-10T10:23:16.558Z,93.84
2018-12-10T10:25:53.443Z,92.91
2018-12-10T10:28:30.969Z,93.00
2018-12-10T10:31:05.452Z,92.62
2018-12-10T10:33:42.095Z,92.38
2018-12-10T10:36:17.565Z,91.88
2018-12-10T10:39:06.052Z,92.50
2018-12-10T10:41:44.403Z,92.52
2018-12-10T10:44:26.902Z,92.97
2018-12-10T10:47:01.049Z,93.14
2018-12-10T10:49:38.066Z,93.11
2018-12-10T10:52:12.578Z,93.38
2018-12-10T10:54:49.911Z,93.22
2018-12-10T10:59:39.635Z,92.32
2018-12-10T11:05:20.076Z,92.71
2018-12-10T11:07:59.360Z,92.68
2018-12-10T11:10:40.624Z,93.40
2018-12-10T11:13:18.729Z,94.37
2018-12-10T11:16:01.837Z,95.35
2018-12-10T11:18:52.619Z,96.37
2018-12-10T11:21:38.174Z,97.74
2018-12-10T11:24:21.090Z,98.59
2018-12-10T11:27:01.874Z,100.00
2018-12-10T11:29:52.098Z,100.00
2018-12-10T11:32:42.929Z,100.00
2018-12-10T11:35:26.996Z,100.00
2018-12-10T11:38:05.307Z,100.00
2018-12-10T11:40:49.299Z,100.00
2018-12-10T11:43:30.752Z,100.00
2018-12-10T11:46:09.834Z,100.00
2018-12-10T11:48:48.012Z,100.00
2018-12-10T11:51:26.385Z,100.00
2018-12-10T11:54:15.565Z,100.00
2018-12-10T11:57:12.008Z,100.00
2018-12-10T11:59:54.502Z,100.00
2018-12-10T12:02:33.925Z,100.00
2018-12-10T12:05:18.054Z,100.00
2018-12-10T12:08:06.612Z,100.00
2018-12-10T12:10:44.229Z,99.94
2018-12-10T12:13:22.815Z,99.01
2018-12-10T12:16:15.930Z,98.95
2018-12-10T12:19:01.083Z,98.73
2018-12-10T12:21:44.084Z,98.31
2018-12-10T12:24:21.769Z,97.44
2018-12-10T12:27:08.949Z,97.24
2018-12-10T12:29:44.180Z,96.50
2018-12-10T12:32:29.648Z,96.32
2018-12-10T12:35:18.507Z,96.30
2018-12-10T12:38:01.386Z,96.22
2018-12-10T12:40:39.404Z,96.71
2018-12-10T12:43:17.642Z,96.26
2018-12-10T12:45:54.672Z,96.55
2018-12-10T12:48:35.083Z,96.24
2018-12-10T12:51:10.986Z,96.83
2018-12-10T12:53:54.566Z,97.71
2018-12-10T12:56:35.593Z,96.97
2018-12-10T12:59:18.053Z,96.79
2018-12-10T13:02:01.434Z,97.13
2018-12-10T13:04:39.873Z,97.87
2018-12-10T13:07:16.723Z,98.30
2018-12-10T13:10:02.185Z,99.60
2018-12-10T13:12:40.908Z,100.00
2018-12-10T13:15:18.867Z,100.00
2018-12-10T13:18:15.274Z,100.00
2018-12-10T13:20:53.915Z,100.00
2018-12-10T13:23:40.026Z,100.00
2018-12-10T13:26:19.733Z,100.00
2018-12-10T13:29:06.827Z,100.00
2018-12-10T13:31:43.600Z,100.00
2018-12-10T13:34:20.985Z,100.00
2018-12-10T13:36:58.985Z,100.00
2018-12-10T13:39:37.829Z,99.91
2018-12-10T13:42:24.648Z,99.77
2018-12-10T13:45:24.211Z,99.60
2018-12-10T13:48:07.379Z,99.76
2018-12-10T13:50:51.210Z,99.31
2018-12-10T13:53:35.359Z,98.90
2018-12-10T13:56:08.183Z,99.77
2018-12-10T13:58:56.296Z,99.44
2018-12-10T14:01:41.758Z,99.64
2018-12-10T14:04:25.825Z,100.00
2018-12-10T14:07:09.873Z,100.00
2018-12-10T14:09:48.734Z,100.00
2018-12-10T14:12:34.374Z,100.00
2018-12-10T14:15:34.115Z,100.00
2018-12-10T14:18:17.995Z,100.00
2018-12-10T14:21:07.251Z,100.00
2018-12-10T14:27:42.384Z,100.00
2018-12-10T14:30:33.975Z,100.00
2018-12-10T14:33:10.913Z,99.36
2018-12-10T14:35:47.942Z,99.20
2018-12-10T14:38:31.359Z,98.22
2018-12-10T14:41:16.162Z,97.86
2018-12-10T14:43:55.717Z,97.62
2018-12-10T14:46:32.783Z,97.26
2018-12-10T14:49:06.570Z,97.40
2018-12-10T14:51:44.457Z,97.15
2018-12-10T14:54:31.821Z,97.56
2018-12-10T14:57:17.936Z,97.72
2018-12-10T15:00:01.976Z,98.02
2018-12-10T15:02:39.422Z,97.36
2018-12-10T15:05:21.011Z,97.49
2018-12-10T15:07:57.895Z,97.73
2018-12-10T15:10:34.761Z,98.08
2018-12-10T15:13:13.934Z,97.95
2018-12-10T15:15:53.316Z,97.71
2018-12-10T15:18:33.539Z,97.75
2018-12-10T15:21:10.468Z,97.77
2018-12-10T15:23:59.976Z,97.88
2018-12-10T15:26:40.109Z,98.40
2018-12-10T15:29:22.198Z,97.95
2018-12-10T15:31:59.904Z,98.05
2018-12-10T15:34:55.629Z,98.00
2018-12-10T15:37:27.199Z,98.08
2018-12-10T15:40:05.188Z,97.97
2018-12-10T15:42:59.880Z,97.74
2018-12-10T15:52:13.866Z,98.12
2018-12-10T15:54:52.886Z,97.90
2018-12-10T15:57:29.876Z,97.35
2018-12-10T16:00:12.602Z,96.75
2018-12-10T16:02:51.516Z,96.90
2018-12-10T16:05:34.696Z,96.49
2018-12-10T16:08:18.875Z,96.39
2018-12-10T16:13:47.395Z,95.88
2018-12-10T16:16:24.033Z,95.93
2018-12-10T16:28:14.850Z,96.08
2018-12-10T16:30:59.545Z,96.12
2018-12-10T16:33:43.834Z,96.77
2018-12-10T16:36:20.633Z,96.64
2018-12-10T16:39:08.487Z,96.58
2018-12-10T16:48:16.228Z,97.30
2018-12-10T16:53:59.043Z,96.53
2018-12-10T16:56:42.729Z,96.91
2018-12-10T17:02:58.197Z,97.29
2018-12-10T17:09:07.953Z,97.73
2018-12-10T17:12:10.178Z,97.84
2018-12-10T17:14:54.429Z,98.76
2018-12-10T17:17:50.861Z,98.43
2018-12-10T17:20:41.635Z,97.65
2018-12-10T17:23:37.378Z,97.65
2018-12-10T17:29:24.232Z,97.50
2018-12-10T17:32:19.866Z,97.80
2018-12-10T17:35:02.672Z,98.17
2018-12-10T17:37:45.400Z,98.45
2018-12-10T17:40:19.497Z,98.25
2018-12-10T17:43:12.762Z,98.14
2018-12-10T17:45:53.331Z,98.07
2018-12-10T17:48:36.694Z,97.84
2018-12-10T17:51:14.313Z,98.19
2018-12-10T17:53:55.398Z,97.84
2018-12-10T17:56:33.001Z,98.11
2018-12-10T17:59:08.316Z,98.16
2018-12-10T18:01:58.752Z,98.29
2018-12-10T18:04:39.619Z,99.00
2018-12-10T18:07:16.702Z,98.97
2018-12-10T18:09:54.340Z,98.95
2018-12-10T18:12:30.732Z,99.20
2018-12-10T18:15:06.384Z,99.54
2018-12-10T18:17:45.652Z,99.49
2018-12-10T18:21:14.617Z,99.57
2018-12-10T18:23:56.436Z,99.88
2018-12-10T18:26:35.138Z,99.91
2018-12-10T18:29:09.895Z,100.00
2018-12-10T18:31:43.776Z,100.00
2018-12-10T18:34:34.257Z,99.93
2018-12-10T18:37:28.982Z,100.00
2018-12-10T18:40:07.491Z,100.00
2018-12-10T18:46:11.300Z,100.00
2018-12-10T18:48:48.255Z,100.00
2018-12-10T18:51:30.270Z,100.00
2018-12-10T18:54:17.064Z,100.00
2018-12-10T18:56:59.906Z,100.00
2018-12-10T18:59:43.221Z,100.00
2018-12-10T19:02:31.329Z,100.00
2018-12-10T19:05:14.324Z,100.00
2018-12-10T19:08:02.138Z,100.00
2018-12-10T19:10:49.474Z,100.00
2018-12-10T19:13:33.175Z,100.00
2018-12-10T19:18:44.536Z,100.00
2018-12-10T19:21:24.742Z,100.00
2018-12-10T19:24:08.129Z,100.00
2018-12-10T19:30:01.502Z,100.00
2018-12-10T19:32:43.061Z,100.00
2018-12-10T19:35:32.045Z,100.00
2018-12-10T19:38:14.920Z,100.00
2018-12-10T19:44:16.548Z,100.00
2018-12-10T19:47:01.945Z,100.00
2018-12-10T19:50:00.306Z,100.00
2018-12-10T19:52:49.336Z,100.00
2018-12-10T19:55:31.940Z,100.00
2018-12-10T19:58:10.599Z,100.00
2018-12-10T20:01:01.683Z,100.00
2018-12-10T20:03:44.516Z,100.00
2018-12-10T20:06:29.897Z,100.00
2018-12-10T20:09:10.215Z,100.00
2018-12-10T20:11:49.113Z,100.00
2018-12-10T20:14:37.229Z,99.85
2018-12-10T20:17:11.820Z,100.00
2018-12-10T20:19:51.042Z,100.00
2018-12-10T20:22:26.111Z,100.00
2018-12-10T20:25:09.005Z,100.00
2018-12-10T20:27:48.991Z,100.00
2018-12-10T20:30:29.100Z,100.00
2018-12-10T20:33:20.086Z,100.00
2018-12-10T20:36:05.932Z,100.00
2018-12-10T20:38:42.261Z,99.89
2018-12-10T20:41:20.350Z,99.90
2018-12-10T20:44:00.864Z,99.95
2018-12-10T20:46:49.375Z,100.00
2018-12-10T20:49:28.417Z,100.00
2018-12-10T20:52:10.773Z,100.00
2018-12-10T20:54:46.778Z,100.00
2018-12-10T20:57:23.809Z,100.00
2018-12-10T21:00:00.816Z,100.00
2018-12-10T21:02:42.534Z,100.00
2018-12-10T21:05:16.707Z,100.00
2018-12-10T21:07:54.379Z,100.00
2018-12-10T21:10:29.085Z,99.95
2018-12-10T21:13:11.724Z,100.00
2018-12-10T21:16:04.325Z,100.00
2018-12-10T21:18:55.256Z,100.00
2018-12-10T21:21:36.519Z,100.00
2018-12-10T21:24:14.435Z,100.00
2018-12-10T21:26:54.551Z,100.00
2018-12-10T21:29:36.253Z,100.00
2018-12-10T21:32:12.834Z,100.00
2018-12-10T21:34:47.562Z,100.00
2018-12-10T21:40:16.678Z,100.00
2018-12-10T21:42:51.727Z,100.00
2018-12-10T21:45:29.941Z,100.00
2018-12-10T21:48:08.040Z,100.00
2018-12-10T21:50:40.696Z,100.00
2018-12-10T21:53:28.035Z,100.00
2018-12-10T21:56:07.027Z,100.00
2018-12-10T21:58:40.386Z,100.00
2018-12-10T22:01:22.956Z,100.00
2018-12-10T22:04:02.280Z,100.00
2018-12-10T22:06:40.263Z,100.00
2018-12-10T22:09:21.475Z,100.00
2018-12-10T22:15:17.789Z,100.00
2018-12-10T22:17:58.818Z,100.00
2018-12-10T22:20:41.819Z,100.00
2018-12-10T22:23:23.120Z,100.00
2018-12-10T22:26:02.414Z,100.00
2018-12-10T22:28:39.500Z,100.00
2018-12-10T22:31:14.767Z,100.00
2018-12-10T22:33:52.374Z,100.00
2018-12-10T22:36:38.424Z,100.00
2018-12-10T22:39:15.707Z,100.00
2018-12-10T22:41:54.494Z,100.00
2018-12-10T22:44:33.428Z,100.00
2018-12-10T22:47:08.329Z,100.00
2018-12-10T22:49:46.541Z,100.00
2018-12-10T22:52:25.996Z,100.00
2018-12-10T22:55:05.433Z,100.00
2018-12-10T22:57:49.262Z,100.00
2018-12-10T23:00:32.070Z,100.00
2018-12-10T23:03:08.702Z,100.00
2018-12-10T23:05:45.318Z,100.00
2018-12-10T23:08:27.403Z,100.00
2018-12-10T23:11:13.406Z,100.00
2018-12-10T23:14:00.518Z,100.00
2018-12-10T23:16:37.071Z,100.00
2018-12-10T23:19:24.072Z,100.00
2018-12-10T23:21:59.775Z,100.00
2018-12-10T23:24:37.262Z,99.75
2018-12-10T23:27:13.921Z,100.00
2018-12-10T23:29:57.613Z,100.00
2018-12-10T23:32:35.520Z,100.00
2018-12-10T23:35:14.701Z,100.00
2018-12-10T23:37:51.562Z,99.96
2018-12-10T23:40:26.225Z,100.00
2018-12-10T23:43:03.900Z,99.90
2018-12-10T23:45:45.402Z,99.58
2018-12-10T23:49:14.909Z,99.76
2018-12-10T23:51:51.597Z,99.82
2018-12-10T23:54:29.314Z,99.73
2018-12-10T23:57:06.362Z,99.52
2018-12-10T23:59:49.172Z,99.40
